Time;durP1;ratioP1;P1;durP2;ratioP2;P2;SDS_P1;SDS_P2;PMS_P1;PMS_P2;Temp;Humidity;BMP_temperature;BMP_pressure;BME280_temperature;BME280_humidity;BME280_pressure;Samples;Min_cycle;Max_cycle;Signal;HPM_P1;HPM_P2
2021/09/21 00:02:12;;;;;;;20.10;7.50;;;;;;;5.07;75.39;101101.83;112760;1199;22414;-60
2021/09/21 00:04:43;;;;;;;21.70;7.00;;;;;;;5.04;75.51;101103.86;112712;1199;22472;-59
2021/09/21 00:07:16;;;;;;;19.00;6.80;;;;;;;5.00;75.49;101105.02;112753;1199;22442;-59
2021/09/21 00:09:48;;;;;;;19.90;7.50;;;;;;;4.96;75.47;101103.20;112727;1200;24111;-60
2021/09/21 00:12:20;;;;;;;16.40;6.20;;;;;;;4.91;75.51;101101.54;112750;1200;22434;-60
2021/09/21 00:14:50;;;;;;;17.00;6.10;;;;;;;4.88;75.48;101101.98;112698;1200;22903;-59
2021/09/21 00:17:22;;;;;;;17.40;6.70;;;;;;;4.84;75.54;101099.12;112730;1199;22470;-61
2021/09/21 00:19:52;;;;;;;19.90;7.10;;;;;;;4.81;75.60;101098.77;112715;1200;22636;-60
2021/09/21 00:22:23;;;;;;;17.20;6.30;;;;;;;4.80;75.46;101100.54;113162;1199;22424;-60
2021/09/21 00:24:54;;;;;;;16.20;5.90;;;;;;;4.76;75.52;101098.69;112675;1200;24011;-59
2021/09/21 00:27:25;;;;;;;18.70;7.40;;;;;;;4.73;75.60;101097.48;112644;1193;22452;-59
2021/09/21 00:29:56;;;;;;;22.00;6.80;;;;;;;4.70;75.61;101099.58;112700;1184;24054;-59
2021/09/21 00:32:27;;;;;;;17.50;7.00;;;;;;;4.66;75.66;101102.40;112829;1193;23937;-61
2021/09/21 00:34:59;;;;;;;18.90;7.10;;;;;;;4.63;75.58;101097.08;112701;1199;24040;-60
2021/09/21 00:37:31;;;;;;;20.40;7.70;;;;;;;4.60;75.61;101098.05;112721;1199;22449;-59
2021/09/21 00:40:03;;;;;;;17.50;6.80;;;;;;;4.57;75.57;101095.34;112869;1193;25030;-60
2021/09/21 00:42:34;;;;;;;18.60;6.50;;;;;;;4.54;75.64;101097.94;112872;1199;22427;-59
2021/09/21 00:45:10;;;;;;;21.70;7.70;;;;;;;4.51;75.70;101099.15;112794;1192;22442;-60
2021/09/21 00:47:41;;;;;;;22.60;8.30;;;;;;;4.49;75.71;101106.59;113011;1199;22897;-61
2021/09/21 00:50:13;;;;;;;21.50;8.20;;;;;;;4.47;75.73;101109.17;113105;1193;24088;-61
2021/09/21 00:52:44;;;;;;;24.90;9.00;;;;;;;4.43;75.87;101104.95;113199;1199;22441;-61
2021/09/21 00:57:44;;;;;;;28.20;9.80;;;;;;;4.38;75.91;101099.81;112993;1193;25206;-60
2021/09/21 01:00:20;;;;;;;25.90;9.40;;;;;;;4.35;75.95;101098.35;112695;1200;22438;-60
2021/09/21 01:02:51;;;;;;;29.40;9.80;;;;;;;4.33;76.00;101100.83;112923;1199;22436;-60
2021/09/21 01:05:23;;;;;;;28.30;9.80;;;;;;;4.31;76.26;101100.06;112690;1199;26295;-61
2021/09/21 01:07:53;;;;;;;24.90;9.30;;;;;;;4.32;76.32;101099.66;112809;1199;25112;-59
2021/09/21 01:10:28;;;;;;;29.20;12.00;;;;;;;4.30;76.35;101102.45;112753;1193;22419;-60
2021/09/21 01:13:00;;;;;;;22.60;8.20;;;;;;;4.29;76.57;101102.86;116940;1198;23156;-61
2021/09/21 01:15:31;;;;;;;25.70;9.40;;;;;;;4.28;76.65;101102.48;117017;1199;22225;-61
2021/09/21 01:18:03;;;;;;;25.30;9.40;;;;;;;4.27;76.73;101103.05;116986;1198;22162;-61
2021/09/21 01:20:34;;;;;;;24.20;9.60;;;;;;;4.26;76.68;101104.17;116912;1184;22303;-61
2021/09/21 01:23:06;;;;;;;25.50;10.20;;;;;;;4.25;76.82;101100.08;113073;1199;22453;-59
2021/09/21 01:25:38;;;;;;;25.20;10.30;;;;;;;4.24;76.80;101097.96;113065;1200;22681;-61
2021/09/21 01:28:08;;;;;;;26.10;9.80;;;;;;;4.22;76.68;101101.05;112644;1200;22409;-62
2021/09/21 01:30:39;;;;;;;23.00;8.30;;;;;;;4.20;76.71;101104.39;112595;1199;22436;-60
2021/09/21 01:33:10;;;;;;;22.70;9.20;;;;;;;4.20;76.89;101107.01;112600;1199;25061;-59
2021/09/21 01:35:41;;;;;;;26.60;8.80;;;;;;;4.19;76.87;101102.52;112505;1199;22468;-61
2021/09/21 01:38:12;;;;;;;22.40;9.00;;;;;;;4.16;76.75;101104.52;112791;1199;25111;-60
2021/09/21 01:40:44;;;;;;;23.40;9.80;;;;;;;4.13;76.65;101107.73;112635;1199;22431;-60
2021/09/21 01:43:14;;;;;;;25.30;10.20;;;;;;;4.09;76.64;101107.86;112698;1200;22436;-60
2021/09/21 01:45:46;;;;;;;27.20;10.80;;;;;;;4.05;76.63;101110.42;112634;1199;22435;-58
2021/09/21 01:48:17;;;;;;;21.60;9.00;;;;;;;4.02;76.56;101108.89;112714;1199;24232;-61
2021/09/21 01:50:52;;;;;;;25.40;9.80;;;;;;;3.99;76.61;101115.16;112700;1199;22443;-60
2021/09/21 01:53:33;;;;;;;22.70;9.40;;;;;;;3.98;76.69;101120.30;112593;1199;22486;-60
2021/09/21 01:58:53;;;;;;;23.80;8.40;;;;;;;3.92;76.78;101117.38;112647;1200;22453;-61
2021/09/21 02:01:26;;;;;;;25.10;9.70;;;;;;;3.90;76.81;101119.22;112607;1199;22416;-60
2021/09/21 02:03:58;;;;;;;24.40;10.50;;;;;;;3.89;76.97;101120.98;112611;1199;22542;-60
2021/09/21 02:06:34;;;;;;;27.40;10.60;;;;;;;3.87;77.27;101120.34;112678;1200;25235;-60
2021/09/21 02:09:06;;;;;;;24.10;10.90;;;;;;;3.87;77.37;101124.23;112673;1193;22445;-60
2021/09/21 02:11:38;;;;;;;23.80;9.60;;;;;;;3.85;77.43;101127.71;112554;1199;22437;-60
2021/09/21 02:14:12;;;;;;;24.60;9.30;;;;;;;3.86;77.63;101127.31;112625;1199;25166;-59
2021/09/21 02:16:45;;;;;;;25.30;10.40;;;;;;;3.84;77.78;101127.41;112642;1199;22450;-60
2021/09/21 02:19:16;;;;;;;22.70;9.70;;;;;;;3.85;77.90;101124.09;112683;1200;22439;-60
2021/09/21 02:21:47;;;;;;;31.20;11.10;;;;;;;3.84;77.84;101119.90;112668;1187;24056;-61
2021/09/21 02:24:22;;;;;;;26.00;9.30;;;;;;;3.85;77.94;101115.89;112638;1199;25100;-59
2021/09/21 02:26:53;;;;;;;26.20;10.90;;;;;;;3.85;77.94;101110.67;112901;1200;22588;-60
2021/09/21 02:29:26;;;;;;;26.40;10.80;;;;;;;3.84;78.02;101110.84;112960;1199;24072;-59
2021/09/21 02:31:56;;;;;;;23.50;9.10;;;;;;;3.85;77.93;101111.86;112690;1200;22440;-60
2021/09/21 02:34:27;;;;;;;28.40;11.70;;;;;;;3.86;77.96;101110.66;112627;1200;22440;-60
2021/09/21 02:37:01;;;;;;;29.70;11.50;;;;;;;3.86;77.93;101109.88;112638;1200;24095;-59
2021/09/21 02:39:32;;;;;;;28.00;11.60;;;;;;;3.84;78.00;101109.27;112645;1193;25157;-60
2021/09/21 02:42:04;;;;;;;26.00;11.30;;;;;;;3.83;78.01;101111.48;112627;1200;24415;-60
2021/09/21 02:44:36;;;;;;;28.70;11.50;;;;;;;3.82;77.94;101114.89;112635;1200;22458;-59
2021/09/21 02:47:07;;;;;;;27.60;10.90;;;;;;;3.81;78.00;101111.58;112697;1200;25417;-60
2021/09/21 02:49:38;;;;;;;27.80;11.50;;;;;;;3.82;78.09;101111.11;112597;1200;25072;-62
2021/09/21 02:52:09;;;;;;;28.80;10.70;;;;;;;3.83;78.18;101114.48;112666;1199;22435;-59
2021/09/21 02:54:40;;;;;;;27.70;12.00;;;;;;;3.83;78.35;101117.48;112596;1193;24094;-59
2021/09/21 02:57:10;;;;;;;30.30;12.00;;;;;;;3.83;78.33;101114.32;112589;1193;25136;-60
2021/09/21 02:59:41;;;;;;;27.60;11.00;;;;;;;3.83;78.46;101108.00;112560;1193;22443;-60
2021/09/21 03:02:12;;;;;;;33.30;12.60;;;;;;;3.82;78.54;101109.45;112875;1194;22439;-62
2021/09/21 03:04:51;;;;;;;34.90;13.80;;;;;;;3.81;78.66;101107.40;112679;1200;25423;-59
2021/09/21 03:07:30;;;;;;;34.80;13.70;;;;;;;3.81;78.87;101102.66;112637;1193;22434;-60
2021/09/21 03:13:18;;;;;;;34.50;13.40;;;;;;;3.85;79.30;101103.73;112338;1196;22430;-60
2021/09/21 03:18:38;;;;;;;29.10;11.80;;;;;;;3.83;79.13;101112.74;112302;1203;23629;-60
2021/09/21 03:21:09;;;;;;;31.30;13.10;;;;;;;3.82;79.04;101112.60;112334;1203;24134;-59
2021/09/21 03:23:42;;;;;;;32.90;14.30;;;;;;;3.82;79.00;101116.40;112381;1196;25085;-60
2021/09/21 03:26:13;;;;;;;30.80;13.10;;;;;;;3.81;78.98;101116.32;112375;1203;24194;-60
2021/09/21 03:28:44;;;;;;;31.70;11.80;;;;;;;3.80;78.97;101116.88;112399;1196;22446;-59
2021/09/21 03:31:15;;;;;;;33.10;12.80;;;;;;;3.78;79.08;101118.02;112397;1196;24129;-60
2021/09/21 03:33:47;;;;;;;32.60;12.90;;;;;;;3.77;79.06;101118.89;112409;1195;22481;-60
2021/09/21 03:36:20;;;;;;;32.40;12.70;;;;;;;3.77;79.17;101116.92;112424;1202;22834;-59
2021/09/21 03:38:50;;;;;;;29.50;12.10;;;;;;;3.77;79.19;101116.13;112271;1202;24076;-59
2021/09/21 03:41:22;;;;;;;30.00;11.80;;;;;;;3.76;79.09;101123.33;112280;1202;22459;-60
2021/09/21 03:43:52;;;;;;;32.90;14.50;;;;;;;3.76;79.06;101122.45;112384;1196;24226;-59
2021/09/21 03:46:23;;;;;;;33.30;12.40;;;;;;;3.74;79.05;101129.58;112384;1196;23118;-59
2021/09/21 03:48:56;;;;;;;30.20;11.70;;;;;;;3.73;79.08;101132.42;112430;1202;22442;-59
2021/09/21 03:51:27;;;;;;;34.90;12.50;;;;;;;3.70;79.00;101136.88;112702;1193;25166;-59
2021/09/21 03:53:57;;;;;;;31.10;13.70;;;;;;;3.68;79.06;101142.27;112633;1200;22446;-58
2021/09/21 03:56:28;;;;;;;32.60;13.30;;;;;;;3.67;79.05;101148.74;112621;1200;25010;-60
2021/09/21 03:58:59;;;;;;;35.10;14.40;;;;;;;3.67;79.12;101148.03;112658;1199;22438;-60
2021/09/21 04:01:33;;;;;;;35.20;14.70;;;;;;;3.66;79.18;101148.13;112735;1197;22504;-60
2021/09/21 04:04:04;;;;;;;34.40;14.40;;;;;;;3.65;79.20;101149.77;112729;1199;24058;-58
2021/09/21 04:06:35;;;;;;;32.60;13.30;;;;;;;3.65;79.24;101149.63;112861;1199;25026;-59
2021/09/21 04:09:06;;;;;;;35.50;14.20;;;;;;;3.65;79.28;101149.23;112560;1200;22497;-60
2021/09/21 04:11:37;;;;;;;31.80;13.30;;;;;;;3.65;79.36;101151.98;112794;1199;23314;-59
2021/09/21 04:14:08;;;;;;;32.90;13.60;;;;;;;3.67;79.48;101152.38;112690;1199;25324;-60
2021/09/21 04:16:39;;;;;;;29.60;12.80;;;;;;;3.69;79.51;101149.44;112684;1200;22544;-60
2021/09/21 04:19:10;;;;;;;30.10;12.10;;;;;;;3.70;79.53;101150.29;112665;1200;24645;-60
2021/09/21 04:21:40;;;;;;;30.00;12.50;;;;;;;3.71;79.65;101149.41;113072;1199;23125;-60
2021/09/21 04:24:11;;;;;;;30.10;12.50;;;;;;;3.72;79.70;101148.94;113089;1193;22438;-60
2021/09/21 04:26:42;;;;;;;28.70;11.70;;;;;;;3.74;79.66;101151.91;112707;1200;24198;-59
2021/09/21 04:29:14;;;;;;;31.10;12.30;;;;;;;3.77;79.76;101155.27;112676;1193;24090;-59
2021/09/21 04:31:45;;;;;;;25.80;10.90;;;;;;;3.79;79.70;101152.00;112698;1200;22463;-60
2021/09/21 04:34:17;;;;;;;28.10;11.40;;;;;;;3.82;79.80;101156.96;112654;1193;25123;-62
2021/09/21 04:36:48;;;;;;;26.80;11.40;;;;;;;3.85;79.76;101157.55;112541;1200;22587;-62
2021/09/21 04:39:19;;;;;;;25.50;11.20;;;;;;;3.87;79.88;101153.49;112835;1200;22791;-57
2021/09/21 04:41:51;;;;;;;27.30;11.10;;;;;;;3.90;79.94;101152.21;112903;1200;23004;-58
2021/09/21 04:44:22;;;;;;;26.70;11.60;;;;;;;3.90;79.93;101151.58;112699;1199;22459;-57
2021/09/21 04:46:53;;;;;;;30.80;11.20;;;;;;;3.91;79.92;101157.89;112919;1193;22456;-57
2021/09/21 04:49:23;;;;;;;27.20;11.40;;;;;;;3.93;80.05;101156.92;112645;1199;26308;-58
2021/09/21 04:51:54;;;;;;;27.00;11.30;;;;;;;3.94;80.16;101157.61;112818;1193;22439;-58
2021/09/21 04:54:26;;;;;;;25.10;10.80;;;;;;;3.96;80.22;101157.73;113123;1200;22471;-59
2021/09/21 04:56:57;;;;;;;28.30;10.50;;;;;;;4.00;80.38;101161.56;112671;1187;22443;-57
2021/09/21 04:59:27;;;;;;;25.40;10.00;;;;;;;4.03;80.39;101159.48;112559;1194;22441;-58
2021/09/21 05:01:58;;;;;;;28.50;11.50;;;;;;;4.05;80.58;101157.88;112710;1200;22440;-60
2021/09/21 05:04:30;;;;;;;29.10;11.90;;;;;;;4.08;80.62;101161.40;112724;1200;22440;-58
2021/09/21 05:07:03;;;;;;;26.00;11.40;;;;;;;4.11;80.75;101164.77;112751;1200;22426;-57
2021/09/21 05:09:34;;;;;;;27.60;11.00;;;;;;;4.15;80.94;101167.30;114951;1199;22424;-58
2021/09/21 05:12:06;;;;;;;27.60;11.90;;;;;;;4.20;81.05;101170.41;112639;1200;25114;-59
2021/09/21 05:14:37;;;;;;;28.90;13.00;;;;;;;4.25;81.35;101174.06;112785;1200;22509;-58
2021/09/21 05:17:08;;;;;;;32.90;14.00;;;;;;;4.31;81.36;101177.92;112617;1200;22450;-60
2021/09/21 05:19:39;;;;;;;32.00;14.00;;;;;;;4.38;81.57;101175.32;112895;1200;22460;-58
2021/09/21 05:22:10;;;;;;;32.90;14.60;;;;;;;4.44;81.69;101168.69;112613;1199;24839;-59
2021/09/21 05:24:40;;;;;;;36.80;15.70;;;;;;;4.49;82.01;101171.38;112813;1199;25019;-55
2021/09/21 05:27:14;;;;;;;37.70;17.20;;;;;;;4.56;81.94;101171.45;112700;1199;22436;-57
2021/09/21 05:29:44;;;;;;;37.70;15.80;;;;;;;4.65;81.92;101171.88;112667;1193;22473;-58
2021/09/21 05:32:16;;;;;;;39.00;15.80;;;;;;;4.73;82.01;101169.30;112526;1193;22487;-58
2021/09/21 05:34:47;;;;;;;31.90;12.70;;;;;;;4.78;82.14;101174.29;113144;1199;22432;-57
2021/09/21 05:37:16;;;;;;;;;;;;;;;4.83;82.24;101179.83;112883;1193;22421;-64
2021/09/21 05:39:47;;;;;;;34.20;13.30;;;;;;;4.89;82.45;101180.78;112899;1199;22507;-55
2021/09/21 05:42:18;;;;;;;31.60;14.30;;;;;;;4.94;82.53;101183.00;112937;1199;25138;-55
2021/09/21 05:44:51;;;;;;;28.00;13.60;;;;;;;5.00;82.66;101185.36;112802;1199;22506;-58
2021/09/21 05:47:23;;;;;;;32.00;14.10;;;;;;;5.06;82.87;101194.59;112965;1185;22512;-57
2021/09/21 05:49:53;;;;;;;34.90;15.70;;;;;;;5.10;83.12;101193.90;112957;1199;24131;-56
2021/09/21 05:52:27;;;;;;;35.30;16.90;;;;;;;5.14;83.21;101190.44;112422;1193;23909;-57
2021/09/21 05:55:00;;;;;;;32.60;15.50;;;;;;;5.21;83.25;101188.52;112626;1199;23714;-56
2021/09/21 05:57:31;;;;;;;31.80;15.00;;;;;;;5.29;83.41;101188.23;112645;1185;24095;-56
2021/09/21 06:00:02;;;;;;;31.90;14.20;;;;;;;5.37;83.52;101192.20;112544;1199;22453;-58
2021/09/21 06:02:35;;;;;;;33.90;15.70;;;;;;;5.46;83.81;101192.36;112610;1193;24057;-56
2021/09/21 06:05:08;;;;;;;31.70;14.60;;;;;;;5.54;83.84;101195.08;112618;1199;25134;-57
2021/09/21 06:07:46;;;;;;;29.90;13.70;;;;;;;5.63;84.01;101193.34;112777;1200;22435;-58
2021/09/21 06:10:17;;;;;;;29.20;14.50;;;;;;;5.73;84.25;101190.87;112717;1185;24086;-57
2021/09/21 06:12:48;;;;;;;28.80;12.80;;;;;;;5.83;84.31;101194.12;112802;1199;22616;-57
2021/09/21 06:15:23;;;;;;;33.20;16.30;;;;;;;5.89;84.35;101207.86;112624;1200;23291;-56
2021/09/21 06:17:55;;;;;;;28.80;14.10;;;;;;;5.96;84.41;101211.45;112723;1199;25070;-59
2021/09/21 06:20:27;;;;;;;31.40;14.80;;;;;;;6.03;84.32;101212.91;112665;1200;22442;-58
2021/09/21 06:22:59;;;;;;;28.00;14.00;;;;;;;6.10;84.30;101209.16;112615;1199;25207;-55
2021/09/21 06:25:30;;;;;;;30.30;15.50;;;;;;;6.17;84.47;101210.11;112538;1200;25111;-57
2021/09/21 06:28:05;;;;;;;30.40;15.40;;;;;;;6.25;84.94;101211.30;112708;1193;22430;-56
2021/09/21 06:30:37;;;;;;;33.40;15.90;;;;;;;6.35;85.04;101210.14;112740;1193;24097;-58
2021/09/21 06:33:09;;;;;;;35.90;16.30;;;;;;;6.44;85.19;101202.84;112671;1193;25051;-57
2021/09/21 06:35:40;;;;;;;36.20;16.30;;;;;;;6.52;85.46;101207.97;112602;1199;22441;-57
2021/09/21 06:38:13;;;;;;;39.80;17.80;;;;;;;6.60;85.22;101209.48;112540;1194;22497;-57
2021/09/21 06:40:44;;;;;;;37.30;17.40;;;;;;;6.68;85.20;101208.76;112630;1199;22443;-59
2021/09/21 06:43:16;;;;;;;34.10;17.00;;;;;;;6.76;85.26;101205.86;112699;1199;25136;-60
2021/09/21 06:45:47;;;;;;;32.30;16.30;;;;;;;6.84;85.38;101206.64;112500;1200;22443;-55
2021/09/21 06:48:19;;;;;;;37.50;17.10;;;;;;;6.95;85.79;101207.11;112512;1199;22427;-59
2021/09/21 06:50:52;;;;;;;34.10;15.90;;;;;;;7.06;86.18;101206.85;112813;1199;22452;-58
2021/09/21 06:53:23;;;;;;;35.80;17.70;;;;;;;7.16;86.36;101214.23;112593;1199;25044;-56
2021/09/21 06:55:54;;;;;;;32.20;16.80;;;;;;;7.27;86.08;101218.42;112662;1200;22461;-57
2021/09/21 06:58:26;;;;;;;36.50;18.00;;;;;;;7.38;86.13;101221.66;112644;1199;22422;-58
2021/09/21 07:01:00;;;;;;;32.30;17.20;;;;;;;7.49;86.22;101226.30;112566;1193;25400;-58
2021/09/21 07:03:31;;;;;;;37.20;16.20;;;;;;;7.58;86.09;101225.53;112764;1194;24856;-57
2021/09/21 07:06:04;;;;;;;38.20;18.00;;;;;;;7.66;86.02;101227.55;112503;1199;22443;-57
2021/09/21 07:08:37;;;;;;;37.10;16.70;;;;;;;7.73;86.09;101231.34;112735;1199;25111;-58
2021/09/21 07:11:09;;;;;;;31.60;16.70;;;;;;;7.81;85.95;101225.42;112820;1200;25057;-56
2021/09/21 07:13:43;;;;;;;39.20;18.00;;;;;;;7.90;86.28;101225.09;112741;1199;25098;-57
2021/09/21 07:16:14;;;;;;;34.00;17.40;;;;;;;8.00;86.07;101226.10;112769;1199;24089;-58
2021/09/21 07:18:48;;;;;;;38.00;16.80;;;;;;;8.11;86.56;101238.61;112595;1199;24993;-57
2021/09/21 07:21:20;;;;;;;36.60;18.20;;;;;;;8.23;86.90;101241.01;112823;1193;25143;-56
2021/09/21 07:23:51;;;;;;;34.60;17.70;;;;;;;8.34;87.03;101243.01;112806;1193;24110;-57
2021/09/21 07:26:24;;;;;;;43.00;19.10;;;;;;;8.47;87.11;101243.77;112568;1199;25146;-57
2021/09/21 07:28:56;;;;;;;36.80;17.70;;;;;;;8.58;87.11;101250.20;112675;1199;24216;-57
2021/09/21 07:31:27;;;;;;;35.90;18.50;;;;;;;8.71;87.28;101243.63;112767;1199;25450;-56
2021/09/21 07:33:58;;;;;;;42.30;18.90;;;;;;;8.82;87.35;101245.50;112972;1193;22711;-57
2021/09/21 07:36:29;;;;;;;37.20;18.20;;;;;;;8.95;87.38;101253.56;112704;1193;25064;-57
2021/09/21 07:39:01;;;;;;;38.10;17.60;;;;;;;9.08;87.67;101259.78;112556;1199;22439;-58
2021/09/21 07:41:33;;;;;;;33.10;17.40;;;;;;;9.23;87.85;101260.38;112741;1199;22423;-58
2021/09/21 07:44:05;;;;;;;35.70;17.60;;;;;;;9.36;87.98;101258.65;112868;1193;24498;-59
2021/09/21 07:46:36;;;;;;;40.60;18.90;;;;;;;9.52;87.99;101255.21;112921;1200;24065;-57
2021/09/21 07:49:09;;;;;;;40.90;19.60;;;;;;;9.66;87.91;101258.80;112496;1199;22641;-58
2021/09/21 07:51:40;;;;;;;35.40;18.90;;;;;;;9.81;87.83;101258.80;112822;1200;24107;-57
2021/09/21 07:54:12;;;;;;;29.70;13.70;;;;;;;9.95;87.94;101266.02;112556;1193;25188;-58
2021/09/21 07:56:43;;;;;;;24.80;10.70;;;;;;;10.13;87.38;101264.25;112458;1200;24161;-58
2021/09/21 07:59:17;;;;;;;22.70;9.30;;;;;;;10.29;86.73;101268.63;112788;1199;25132;-58
2021/09/21 08:01:50;;;;;;;21.60;9.10;;;;;;;10.43;86.35;101267.80;112759;1199;22614;-54
2021/09/21 08:04:22;;;;;;;19.40;7.30;;;;;;;10.54;85.92;101270.41;112689;1199;23556;-57
2021/09/21 08:06:53;;;;;;;19.40;8.10;;;;;;;10.65;85.40;101272.59;112697;1193;24160;-56
2021/09/21 08:09:27;;;;;;;19.20;7.00;;;;;;;10.74;85.15;101287.09;112644;1193;23727;-58
2021/09/21 08:12:01;;;;;;;17.50;6.40;;;;;;;10.83;84.78;101294.10;112613;1199;22451;-56
2021/09/21 08:14:36;;;;;;;18.20;6.70;;;;;;;10.87;84.15;101294.02;112732;1199;24995;-59
2021/09/21 08:17:10;;;;;;;20.90;6.70;;;;;;;10.89;83.70;101294.60;112807;1199;22464;-57
2021/09/21 08:19:43;;;;;;;14.70;5.50;;;;;;;10.89;83.56;101295.26;112892;1200;26365;-58
2021/09/21 08:22:15;;;;;;;16.80;5.20;;;;;;;10.89;83.18;101292.44;112726;1200;22442;-56
2021/09/21 08:24:47;;;;;;;13.70;5.10;;;;;;;10.92;83.33;101297.27;112557;1200;22558;-58
2021/09/21 08:27:20;;;;;;;14.20;4.90;;;;;;;10.96;83.20;101302.22;112689;1193;22442;-58
2021/09/21 08:29:53;;;;;;;18.60;6.20;;;;;;;11.00;83.33;101302.16;112656;1192;22559;-57
2021/09/21 08:32:26;;;;;;;19.40;7.00;;;;;;;11.04;83.47;101308.70;112608;1200;26493;-57
2021/09/21 08:34:59;;;;;;;20.40;7.40;;;;;;;11.08;83.42;101310.45;112850;1199;22446;-60
2021/09/21 08:37:31;;;;;;;17.10;6.20;;;;;;;11.13;83.32;101314.88;112839;1199;22442;-57
2021/09/21 08:40:03;;;;;;;16.80;5.80;;;;;;;11.13;83.21;101314.84;112726;1199;24075;-58
2021/09/21 08:42:35;;;;;;;16.10;5.70;;;;;;;11.12;82.69;101306.90;112726;1200;22431;-57
2021/09/21 08:45:08;;;;;;;14.80;5.50;;;;;;;11.11;82.86;101296.16;112699;1193;24190;-59
2021/09/21 08:47:42;;;;;;;15.60;5.60;;;;;;;11.10;83.04;101291.46;112622;1193;22441;-58
2021/09/21 08:50:13;;;;;;;12.50;4.30;;;;;;;11.13;83.11;101300.10;112667;1194;22640;-55
2021/09/21 08:52:45;;;;;;;13.80;4.80;;;;;;;11.12;83.06;101304.43;112851;1199;23171;-56
2021/09/21 08:55:17;;;;;;;16.50;5.70;;;;;;;11.12;83.37;101309.36;112757;1199;24897;-57
2021/09/21 08:57:48;;;;;;;15.40;5.00;;;;;;;11.13;83.59;101306.67;112795;1199;22442;-58
2021/09/21 09:00:26;;;;;;;15.00;5.20;;;;;;;11.14;84.15;101308.89;112912;1193;24092;-55
2021/09/21 09:03:07;;;;;;;18.40;7.00;;;;;;;11.14;84.44;101308.17;112810;1199;25221;-57
2021/09/21 09:05:50;;;;;;;17.30;7.70;;;;;;;11.14;84.96;101305.15;112761;1197;22424;-58
2021/09/21 09:08:31;;;;;;;18.00;7.10;;;;;;;11.14;85.03;101301.80;112740;1194;24084;-57
2021/09/21 09:11:18;;;;;;;16.10;6.50;;;;;;;11.14;85.32;101308.25;112670;1199;22456;-57
2021/09/21 09:13:53;;;;;;;18.80;6.30;;;;;;;11.14;85.25;101307.70;112781;1200;22440;-57
2021/09/21 09:16:26;;;;;;;16.20;6.30;;;;;;;11.12;85.14;101311.20;112669;1193;25184;-59
2021/09/21 09:19:05;;;;;;;15.40;5.70;;;;;;;11.09;85.06;101308.14;112598;1200;22533;-55
2021/09/21 09:21:37;;;;;;;15.00;6.10;;;;;;;11.05;85.20;101308.98;112707;1199;25119;-58
2021/09/21 09:24:10;;;;;;;16.00;6.60;;;;;;;11.05;85.20;101309.58;112803;1178;25368;-57
2021/09/21 09:26:44;;;;;;;18.00;5.30;;;;;;;11.02;85.28;101309.10;112642;1199;23095;-56
2021/09/21 09:29:17;;;;;;;13.50;5.00;;;;;;;11.02;85.22;101308.24;112785;1200;22456;-59
2021/09/21 09:31:48;;;;;;;16.60;5.70;;;;;;;11.03;85.31;101308.10;112843;1199;22534;-58
2021/09/21 09:34:25;;;;;;;14.90;6.20;;;;;;;11.07;85.39;101303.81;112649;1199;25070;-56
2021/09/21 09:36:59;;;;;;;18.50;6.60;;;;;;;11.13;85.35;101301.27;112752;1184;22492;-58
2021/09/21 09:39:32;;;;;;;18.80;7.00;;;;;;;11.17;85.24;101303.13;112647;1199;24155;-55
2021/09/21 09:42:04;;;;;;;17.60;7.60;;;;;;;11.22;85.48;101304.41;112628;1194;22443;-58
2021/09/21 09:44:36;;;;;;;18.90;8.00;;;;;;;11.29;85.42;101305.77;112665;1193;22430;-58
2021/09/21 09:47:08;;;;;;;19.00;8.80;;;;;;;11.35;85.46;101314.05;112954;1200;22451;-57
2021/09/21 09:49:42;;;;;;;19.90;6.80;;;;;;;11.40;85.16;101308.77;112892;1200;25123;-57
2021/09/21 09:52:16;;;;;;;21.70;9.50;;;;;;;11.45;85.15;101313.92;112816;1200;25144;-57
2021/09/21 09:54:48;;;;;;;18.50;7.90;;;;;;;11.50;85.18;101311.79;112648;1192;22482;-58
2021/09/21 09:57:22;;;;;;;20.30;7.90;;;;;;;11.56;84.96;101312.21;112652;1199;22440;-55
2021/09/21 09:59:53;;;;;;;20.90;9.60;;;;;;;11.61;85.21;101300.84;112866;1199;22546;-56
2021/09/21 10:02:27;;;;;;;17.90;8.50;;;;;;;11.66;85.20;101299.66;112863;1199;22500;-57
2021/09/21 10:04:58;;;;;;;18.60;9.60;;;;;;;11.73;85.10;101298.91;112616;1200;22439;-55
2021/09/21 10:07:29;;;;;;;21.90;9.40;;;;;;;11.80;85.03;101288.96;112853;1200;22452;-56
2021/09/21 10:10:01;;;;;;;21.40;9.30;;;;;;;11.87;84.94;101286.09;112616;1200;22409;-58
2021/09/21 10:12:34;;;;;;;21.00;9.90;;;;;;;11.95;85.10;101288.72;112622;1193;22537;-58
2021/09/21 10:15:05;;;;;;;22.50;9.40;;;;;;;12.03;85.16;101296.47;112657;1199;24154;-59
2021/09/21 10:17:36;;;;;;;21.40;9.30;;;;;;;12.10;85.43;101297.86;112944;1199;22566;-59
2021/09/21 10:20:15;;;;;;;21.60;9.00;;;;;;;12.17;85.12;101297.83;113014;1194;22442;-59
2021/09/21 10:22:54;;;;;;;19.30;8.90;;;;;;;12.21;84.55;101300.73;112808;1199;22444;-58
2021/09/21 10:25:36;;;;;;;20.70;8.80;;;;;;;12.26;84.36;101299.84;113060;1198;22633;-58
2021/09/21 10:28:15;;;;;;;25.00;9.80;;;;;;;12.27;84.10;101303.59;112819;1193;22454;-57
2021/09/21 10:30:57;;;;;;;23.30;8.70;;;;;;;12.29;83.97;101301.45;112637;1200;26293;-58
2021/09/21 10:33:29;;;;;;;18.80;8.30;;;;;;;12.32;83.82;101296.61;113070;1200;25076;-58
2021/09/21 10:36:01;;;;;;;62.40;33.30;;;;;;;12.36;83.48;101300.77;112754;1193;24034;-58
2021/09/21 10:38:35;;;;;;;33.00;17.10;;;;;;;12.40;83.51;101296.86;112632;1193;22437;-58
2021/09/21 10:41:07;;;;;;;22.80;10.30;;;;;;;12.48;83.46;101295.73;112618;1192;24249;-58
2021/09/21 10:43:38;;;;;;;20.50;7.80;;;;;;;12.55;82.98;101291.98;112712;1199;23898;-58
2021/09/21 10:46:12;;;;;;;19.40;8.20;;;;;;;12.63;82.76;101285.72;112739;1200;25188;-58
2021/09/21 10:48:46;;;;;;;15.90;6.40;;;;;;;12.70;82.49;101287.77;112687;1193;25938;-57
2021/09/21 10:51:18;;;;;;;20.40;7.70;;;;;;;12.78;82.42;101287.63;112711;1194;22428;-55
2021/09/21 10:54:03;;;;;;;21.00;7.90;;;;;;;12.85;82.17;101286.27;112686;1194;22435;-58
2021/09/21 10:56:39;;;;;;;18.40;7.30;;;;;;;12.94;82.00;101289.22;112851;1200;22439;-57
2021/09/21 10:59:18;;;;;;;17.90;6.60;;;;;;;13.01;81.37;101288.98;112754;1199;23145;-58
2021/09/21 11:01:51;;;;;;;20.00;8.70;;;;;;;13.06;81.36;101292.41;112753;1200;25054;-59
2021/09/21 11:04:25;;;;;;;16.50;7.30;;;;;;;13.12;81.56;101288.17;112751;1199;22443;-57
2021/09/21 11:06:58;;;;;;;18.20;6.80;;;;;;;13.21;81.14;101288.99;112663;1199;22441;-58
2021/09/21 11:09:29;;;;;;;14.60;5.80;;;;;;;13.25;80.88;101292.93;112823;1199;22638;-59
2021/09/21 11:12:10;;;;;;;19.20;6.90;;;;;;;13.33;80.45;101297.70;112678;1199;22470;-59
2021/09/21 11:14:43;;;;;;;16.90;6.60;;;;;;;13.35;79.65;101299.10;112694;1185;24093;-59
2021/09/21 11:17:15;;;;;;;15.90;5.90;;;;;;;13.38;79.51;101292.08;112661;1199;22546;-56
2021/09/21 11:19:46;;;;;;;15.50;6.00;;;;;;;13.43;79.18;101293.68;112775;1200;22449;-58
2021/09/21 11:22:40;;;;;;;17.50;6.30;;;;;;;13.50;78.53;101294.56;112559;1200;25382;-59
2021/09/21 11:25:13;;;;;;;15.20;6.10;;;;;;;13.55;78.79;101298.77;112827;1195;22422;-58
2021/09/21 11:27:45;;;;;;;14.60;6.00;;;;;;;13.62;78.44;101290.98;112700;1199;24076;-56
2021/09/21 11:30:18;;;;;;;16.20;7.20;;;;;;;13.70;78.43;101291.37;112676;1193;24226;-59
2021/09/21 11:32:49;;;;;;;17.90;7.00;;;;;;;13.74;77.76;101293.91;112693;1200;22441;-58
2021/09/21 11:35:21;;;;;;;15.70;7.10;;;;;;;13.75;77.83;101294.50;112605;1200;22465;-58
2021/09/21 11:37:55;;;;;;;16.60;6.80;;;;;;;13.73;77.43;101288.13;112644;1200;23106;-59
2021/09/21 11:40:28;;;;;;;18.00;7.50;;;;;;;13.71;77.62;101284.30;112588;1199;22445;-55
2021/09/21 11:43:01;;;;;;;13.80;6.50;;;;;;;13.73;77.57;101285.83;112879;1199;22429;-59
2021/09/21 11:45:32;;;;;;;16.90;6.40;;;;;;;13.71;77.18;101285.23;112726;1195;22504;-59
2021/09/21 11:48:05;;;;;;;15.10;6.70;;;;;;;13.72;77.43;101279.48;112854;1198;25142;-58